Poneto, Indiana
Current Conditions -  °F | °C
As of 9:35 PM on Sunday 21 Dec 2014 (Local Time) from KHHG Reporting Station
Clear Clear  
Wind Chill: 24°   Ceiling: Unl
Heat Index: 30°   Visibility: 7mi
Dew Point: 26°   Wind: 6mph
Humidity: 85%   Direction: 110°ESE
Pressure: 30.14"   Gusts: NA
Location:  40.66°N, 85.22°W
Report Text: KHHG 220235Z AUTO 11005KT 7SM CLR M01/M04 A3014 RMK AO2 T10131036
Loading
Personal Weather Stations






























Interactive Weather Map New forecast layout! Learn more

10-Day Weather Forecast

Advertisements
Track Severe Weather on mobile